This is the latest recevied weather packets stored in our database for station/object KR4BRU. If no packets are shown the sender has not sent any weather packets the latest 10 day(s).
| Time | Temp. | Humidity | Pressure | Rain* | Wind** | Luminosity | Snow |
|---|---|---|---|---|---|---|---|
| 1778097259 | 21.67° C | 87% | 1008.8 hPa | 0 mm | - | 29 W/m² | - |
| 1778096658 | 21.67° C | 88% | 1008.6 hPa | 0 mm | - | 81 W/m² | - |
| 1778096058 | 21.67° C | 88% | 1009.2 hPa | 1.78 mm | - | 119 W/m² | - |
| 1778095457 | 21.11° C | 88% | 1009.4 hPa | 3.56 mm | - | 83 W/m² | - |
| 1778094856 | 21.11° C | 88% | 1009.4 hPa | 1.78 mm | - | 12 W/m² | - |
| 1778094256 | 21.11° C | 87% | 1008.6 hPa | 3.56 mm | - | 47 W/m² | - |
| 1778093656 | 21.11° C | 87% | 1008.3 hPa | 3.56 mm | - | 43 W/m² | - |
| 1778093056 | 21.11° C | 86% | 1009.3 hPa | 4.32 mm | - | 42 W/m² | - |
| 1778092454 | 21.67° C | 86% | 1009.5 hPa | 3.56 mm | - | 32 W/m² | - |
| 1778091855 | 21.67° C | 84% | 1009.4 hPa | 6.1 mm | - | 30 W/m² | - |
| 1778091250 | 22.22° C | 83% | 1010.4 hPa | 3.05 mm | - | 35 W/m² | - |
| 1778090648 | 22.22° C | 82% | 1010.1 hPa | 1.27 mm | - | 30 W/m² | - |
| 1778090048 | 22.78° C | 80% | 1010.1 hPa | 0 mm | - | 46 W/m² | - |
| 1778089442 | 22.78° C | 80% | 1009.9 hPa | 0 mm | - | 126 W/m² | - |
| 1778088842 | 22.78° C | 79% | 1010.1 hPa | 0 mm | - | 126 W/m² | - |
| 1778088241 | 22.78° C | 79% | 1009.4 hPa | 0 mm | - | 207 W/m² | - |
| 1778087636 | 22.78° C | 79% | 1009.5 hPa | 0 mm | - | 133 W/m² | - |
| 1778087035 | 22.78° C | 79% | 1009.4 hPa | 0 mm | - | 117 W/m² | - |
| 1778086433 | 23.33° C | 77% | 1009.3 hPa | 0 mm | - | 149 W/m² | - |
| 1778085831 | 23.33° C | 78% | 1009.2 hPa | 0 mm | - | 558 W/m² | - |
| 1778085229 | 23.89° C | 79% | 1009.3 hPa | 0 mm | - | 411 W/m² | - |
| 1778084629 | 22.78° C | 80% | 1009.2 hPa | 0 mm | - | 761 W/m² | - |
| 1778084023 | 22.78° C | 81% | 1009.3 hPa | 0 mm | - | 352 W/m² | - |
| 1778083424 | 22.22° C | 84% | 1009.6 hPa | 0 mm | - | 973 W/m² | - |
| 1778082819 | 21.67° C | 86% | 1009.3 hPa | 0 mm | - | 372 W/m² | - |
* Rain latest hour (hover to see other rain measurements)
** Current wind speed in m/s (hover to see current wind gust speed)